Time;durP1;ratioP1;P1;durP2;ratioP2;P2;SDS_P1;SDS_P2;PMS_P1;PMS_P2;Temp;Humidity;BMP_temperature;BMP_pressure;BME280_temperature;BME280_humidity;BME280_pressure;Samples;Min_cycle;Max_cycle;Signal;HPM_P1;HPM_P2
2024/02/15 00:01:21;;;;;;;12.27;7.95;;;;;;;15.81;68.34;101633.41;4955807;28;124157;-82
2024/02/15 00:03:50;;;;;;;13.85;8.13;;;;;;;15.81;68.40;101632.56;4968890;28;118338;-81
2024/02/15 00:06:17;;;;;;;14.55;8.90;;;;;;;15.81;68.51;101627.22;4963391;28;118878;-82
2024/02/15 00:08:44;;;;;;;16.13;8.75;;;;;;;15.80;68.39;101620.13;4963567;28;123770;-82
2024/02/15 00:11:13;;;;;;;15.15;9.35;;;;;;;15.81;68.38;101621.88;4967023;28;122410;-82
2024/02/15 00:13:41;;;;;;;15.55;8.50;;;;;;;15.81;68.39;101627.22;4981051;28;119377;-81
2024/02/15 00:16:08;;;;;;;13.00;8.80;;;;;;;15.82;68.42;101618.25;4967554;28;119167;-81
2024/02/15 00:18:35;;;;;;;15.07;8.77;;;;;;;15.81;68.45;101616.53;4939884;28;123865;-81
2024/02/15 00:21:03;;;;;;;15.35;8.48;;;;;;;15.81;68.51;101624.56;4960885;28;121956;-81
2024/02/15 00:23:32;;;;;;;14.20;9.18;;;;;;;15.82;68.37;101620.91;4957123;28;119760;-81
2024/02/15 00:25:59;;;;;;;14.52;9.18;;;;;;;15.81;68.18;101617.38;4967623;28;120148;-81
2024/02/15 00:28:26;;;;;;;18.25;10.23;;;;;;;15.81;68.40;101611.19;4967997;28;124773;-81
2024/02/15 00:30:53;;;;;;;17.23;9.77;;;;;;;15.77;68.20;101616.69;4956511;28;122254;-82
2024/02/15 00:33:21;;;;;;;16.48;9.57;;;;;;;15.76;68.26;101614.97;4961781;28;118920;-81
2024/02/15 00:35:51;;;;;;;17.65;9.52;;;;;;;15.75;68.32;101607.91;4965452;28;117650;-82
2024/02/15 00:38:19;;;;;;;15.95;8.65;;;;;;;15.75;68.19;101612.41;4944505;28;123685;-81
2024/02/15 00:40:46;;;;;;;18.10;9.60;;;;;;;15.73;68.43;101609.81;4959287;28;123951;-81
2024/02/15 00:43:13;;;;;;;19.25;9.77;;;;;;;15.72;68.39;101616.03;4947017;28;119297;-82
2024/02/15 00:45:41;;;;;;;20.67;10.57;;;;;;;15.71;68.32;101611.66;4972548;28;118055;-82
2024/02/15 00:48:08;;;;;;;18.98;10.23;;;;;;;15.72;68.16;101613.38;4967786;28;124041;-81
2024/02/15 00:50:35;;;;;;;16.08;10.63;;;;;;;15.71;68.19;101611.66;4976778;28;123787;-82
2024/02/15 00:53:03;;;;;;;17.60;10.73;;;;;;;15.71;68.39;101619.66;4965463;28;118780;-81
2024/02/15 00:55:30;;;;;;;21.90;11.57;;;;;;;15.71;68.42;101627.69;4946105;28;118110;-81
2024/02/15 00:57:57;;;;;;;19.77;11.00;;;;;;;15.70;68.35;101620.59;4962975;28;123794;-81
2024/02/15 01:00:25;;;;;;;17.42;10.40;;;;;;;15.70;68.21;101615.25;4961514;28;121848;-81
2024/02/15 01:02:53;;;;;;;17.13;10.95;;;;;;;15.70;68.37;101615.25;4948894;28;117405;-80
2024/02/15 01:05:21;;;;;;;21.98;10.85;;;;;;;15.69;68.48;101618.91;4960621;28;118073;-81
2024/02/15 01:07:48;;;;;;;17.30;10.43;;;;;;;15.69;68.21;101624.25;4960482;28;123688;-81
2024/02/15 01:10:16;;;;;;;21.60;10.93;;;;;;;15.68;68.35;101617.16;4963667;28;123976;-81
2024/02/15 01:12:44;;;;;;;23.23;9.35;;;;;;;15.67;68.20;101610.09;4988980;28;120166;-81
2024/02/15 01:15:11;;;;;;;16.27;10.00;;;;;;;15.66;68.37;101619.03;4987282;28;120938;-81
2024/02/15 01:17:38;;;;;;;19.98;9.73;;;;;;;15.64;68.45;101610.25;4989894;28;124226;-81
2024/02/15 01:20:07;;;;;;;17.23;9.80;;;;;;;15.64;68.43;101615.59;4981315;28;124344;-80
2024/02/15 01:22:34;;;;;;;17.98;9.02;;;;;;;15.65;68.31;101609.34;4987586;28;118647;-81
2024/02/15 01:25:02;;;;;;;16.45;9.13;;;;;;;15.67;68.40;101614.56;4992086;28;118082;-81
2024/02/15 01:27:30;;;;;;;19.38;9.50;;;;;;;15.67;68.34;101610.09;4969918;28;123678;-80
2024/02/15 01:29:57;;;;;;;19.58;9.00;;;;;;;15.67;68.13;101604.75;4989070;28;123695;-80
2024/02/15 01:32:25;;;;;;;20.10;8.85;;;;;;;15.65;68.32;101604.00;4970261;28;118817;-80
2024/02/15 01:34:54;;;;;;;19.08;8.55;;;;;;;15.65;68.13;101601.31;4977441;28;118475;-81
2024/02/15 01:37:22;;;;;;;16.17;8.40;;;;;;;15.65;68.31;101595.97;4960700;28;124344;-80
2024/02/15 01:39:51;;;;;;;18.20;8.13;;;;;;;15.65;68.29;101595.97;4964859;28;123499;-81
2024/02/15 01:42:18;;;;;;;19.40;8.07;;;;;;;15.65;68.10;101601.31;4960235;28;119137;-80
2024/02/15 01:44:47;;;;;;;17.92;8.05;;;;;;;15.63;68.34;101597.84;4969306;28;117271;-80
2024/02/15 01:47:17;;;;;;;18.35;8.25;;;;;;;15.64;68.10;101594.25;4946873;28;123693;-81
2024/02/15 01:49:45;;;;;;;15.57;8.07;;;;;;;15.64;68.17;101585.38;4957410;28;124267;-80
2024/02/15 01:52:14;;;;;;;17.75;8.13;;;;;;;15.63;68.18;101592.50;4967458;28;119886;-80
2024/02/15 01:54:41;;;;;;;18.27;7.80;;;;;;;15.62;68.26;101590.78;4962462;28;118511;-81
2024/02/15 01:57:08;;;;;;;23.25;7.53;;;;;;;15.62;68.10;101590.78;4949835;28;122922;-80
2024/02/15 01:59:36;;;;;;;13.40;7.72;;;;;;;15.62;68.08;101590.78;4942341;28;122623;-80
2024/02/15 02:02:08;;;;;;;17.35;7.00;;;;;;;15.62;68.20;101585.44;4956830;28;119896;-81
2024/02/15 02:04:37;;;;;;;16.80;7.40;;;;;;;15.62;68.12;101585.44;4966703;28;120095;-80
2024/02/15 02:07:04;;;;;;;14.55;7.32;;;;;;;15.60;68.26;101584.69;4973893;28;124393;-80
2024/02/15 02:09:32;;;;;;;16.20;6.93;;;;;;;15.61;68.15;101582.84;4962043;28;123364;-81
2024/02/15 02:12:00;;;;;;;18.08;7.38;;;;;;;15.61;67.89;101575.69;4963815;28;118406;-80
2024/02/15 02:14:27;;;;;;;14.85;6.90;;;;;;;15.60;68.12;101565.97;4956285;28;118912;-80
2024/02/15 02:16:55;;;;;;;19.10;6.60;;;;;;;15.61;68.16;101564.16;4946006;28;124314;-81
2024/02/15 02:19:22;;;;;;;14.85;6.38;;;;;;;15.60;68.07;101563.31;4962740;28;123586;-80
2024/02/15 02:21:50;;;;;;;15.25;6.40;;;;;;;15.59;67.92;101566.91;4968317;28;117474;-80
2024/02/15 02:24:22;;;;;;;17.15;6.70;;;;;;;15.58;67.92;101570.56;4961151;28;118139;-80
2024/02/15 02:26:49;;;;;;;15.45;6.55;;;;;;;15.56;68.05;101564.44;4966286;28;123788;-80
2024/02/15 02:29:17;;;;;;;17.67;6.30;;;;;;;15.55;67.94;101563.53;4964613;28;123319;-80
2024/02/15 02:31:44;;;;;;;13.80;6.22;;;;;;;15.54;67.79;101561.00;4961209;28;118422;-80
2024/02/15 02:34:13;;;;;;;14.70;6.57;;;;;;;15.55;68.09;101557.34;4969440;28;118799;-80
2024/02/15 02:36:44;;;;;;;17.27;5.97;;;;;;;15.53;67.81;101554.75;4964337;28;123828;-80
2024/02/15 02:39:11;;;;;;;13.10;6.10;;;;;;;15.54;67.91;101544.97;4963158;28;123073;-80
2024/02/15 02:41:38;;;;;;;20.05;5.97;;;;;;;15.52;67.94;101549.50;4967773;28;117463;-80
2024/02/15 02:44:06;;;;;;;11.88;5.38;;;;;;;15.51;67.96;101547.78;4974531;28;118427;-80
2024/02/15 02:46:33;;;;;;;11.82;5.97;;;;;;;15.50;67.93;101543.38;4978595;28;123628;-81
2024/02/15 02:49:00;;;;;;;14.35;5.50;;;;;;;15.50;67.88;101543.38;4971694;28;123054;-81
2024/02/15 02:51:28;;;;;;;16.20;6.03;;;;;;;15.51;68.04;101550.47;4973136;28;119801;-81
2024/02/15 02:53:55;;;;;;;18.08;5.72;;;;;;;15.51;67.91;101545.97;4973868;28;120158;-81
2024/02/15 02:56:22;;;;;;;16.67;5.70;;;;;;;15.53;67.91;101553.91;4954010;28;123446;-80
2024/02/15 02:58:49;;;;;;;14.27;5.13;;;;;;;15.52;68.02;101544.16;4964971;28;123317;-81
2024/02/15 03:01:17;;;;;;;14.10;5.70;;;;;;;15.52;68.00;101552.16;4966097;28;119391;-81
2024/02/15 03:03:45;;;;;;;22.33;5.35;;;;;;;15.53;68.14;101543.22;4949665;28;119554;-81
2024/02/15 03:06:12;;;;;;;12.45;5.03;;;;;;;15.52;68.20;101546.84;4971754;28;124167;-81
2024/02/15 03:08:39;;;;;;;16.88;5.10;;;;;;;15.53;67.92;101543.22;4971821;28;123829;-81
2024/02/15 03:11:07;;;;;;;11.13;5.22;;;;;;;15.52;68.08;101546.84;4961068;28;121063;-81
2024/02/15 03:13:35;;;;;;;13.73;5.10;;;;;;;15.52;68.09;101546.84;4959989;28;119399;-81
2024/02/15 03:16:04;;;;;;;17.00;5.10;;;;;;;15.51;67.94;101539.78;4951589;28;123885;-81
2024/02/15 03:18:33;;;;;;;13.68;5.57;;;;;;;15.50;67.85;101533.59;4979118;28;124374;-80
2024/02/15 03:21:00;;;;;;;11.35;4.55;;;;;;;15.51;67.81;101532.63;4945457;28;117950;-81
2024/02/15 03:23:28;;;;;;;18.10;5.35;;;;;;;15.51;67.78;101529.09;4966505;28;119980;-81
2024/02/15 03:25:56;;;;;;;11.75;4.45;;;;;;;15.50;67.95;101532.72;4959553;28;123326;-82
2024/02/15 03:28:24;;;;;;;11.00;4.82;;;;;;;15.50;67.85;101538.94;4968448;28;124989;-82
2024/02/15 03:30:52;;;;;;;16.42;5.40;;;;;;;15.50;67.74;101538.03;4952085;28;118574;-81
2024/02/15 03:33:26;;;;;;;12.98;4.90;;;;;;;15.49;67.76;101525.66;4955693;28;119622;-81
2024/02/15 03:35:53;;;;;;;12.77;4.63;;;;;;;15.49;67.80;101531.00;4971557;28;125488;-82
2024/02/15 03:38:21;;;;;;;16.50;5.70;;;;;;;15.48;67.97;101534.59;4961744;28;124219;-81
2024/02/15 03:40:49;;;;;;;15.90;4.60;;;;;;;15.48;67.94;101534.59;4962731;28;119770;-81
2024/02/15 03:43:16;;;;;;;11.85;4.18;;;;;;;15.48;67.96;101534.59;4944047;28;119315;-81
2024/02/15 03:45:44;;;;;;;12.15;4.10;;;;;;;15.47;67.89;101527.56;4960849;28;123264;-81
2024/02/15 03:48:12;;;;;;;14.00;4.57;;;;;;;15.48;67.89;101523.91;4957081;28;123438;-82
2024/02/15 03:50:39;;;;;;;15.15;4.25;;;;;;;15.49;67.76;101525.66;4959284;28;119430;-81
2024/02/15 03:53:10;;;;;;;12.32;4.20;;;;;;;15.49;67.76;101520.31;4966620;28;118384;-81
2024/02/15 03:55:38;;;;;;;12.88;4.20;;;;;;;15.50;67.84;101532.72;4963466;28;124067;-81
2024/02/15 03:58:05;;;;;;;11.15;4.15;;;;;;;15.50;67.75;101527.38;4967692;28;124050;-81
2024/02/15 04:00:32;;;;;;;9.07;4.28;;;;;;;15.50;67.76;101532.72;4959632;28;118402;-81
2024/02/15 04:03:00;;;;;;;12.15;3.55;;;;;;;15.51;67.92;101534.44;4953849;28;119689;-81
2024/02/15 04:05:29;;;;;;;10.88;3.72;;;;;;;15.52;67.95;101530.81;4957692;28;124671;-81
2024/02/15 04:07:56;;;;;;;13.88;3.72;;;;;;;15.53;67.84;101532.56;4944358;28;124127;-81
2024/02/15 04:10:23;;;;;;;9.75;3.75;;;;;;;15.52;67.74;101530.81;4955644;28;118531;-81
2024/02/15 04:12:51;;;;;;;13.00;3.88;;;;;;;15.54;67.89;101528.94;4945908;28;118480;-81
2024/02/15 04:15:18;;;;;;;12.80;3.72;;;;;;;15.54;67.78;101524.47;4961033;28;124243;-82
2024/02/15 04:17:46;;;;;;;12.45;4.13;;;;;;;15.55;67.66;101527.97;4958934;28;123654;-81
2024/02/15 04:20:15;;;;;;;10.10;3.42;;;;;;;15.56;67.51;101530.56;4965553;28;119255;-81
2024/02/15 04:22:44;;;;;;;14.73;3.83;;;;;;;15.57;67.73;101523.41;4962277;28;117980;-81
2024/02/15 04:25:15;;;;;;;11.25;3.50;;;;;;;15.57;67.61;101524.28;4971815;28;123224;-81
2024/02/15 04:27:49;;;;;;;10.77;3.47;;;;;;;15.59;67.71;101526.88;4965547;28;123754;-81
2024/02/15 04:30:16;;;;;;;11.27;3.50;;;;;;;15.59;67.52;101521.53;4975419;28;120586;-81
2024/02/15 04:32:45;;;;;;;9.85;3.30;;;;;;;15.60;67.65;101517.06;4962640;28;118742;-81
2024/02/15 04:35:14;;;;;;;11.40;3.42;;;;;;;15.60;67.57;101527.75;4956788;28;123976;-81
2024/02/15 04:37:42;;;;;;;12.05;3.50;;;;;;;15.58;67.41;101520.66;4966939;28;123546;-81
2024/02/15 04:40:09;;;;;;;7.93;3.13;;;;;;;15.60;67.50;101520.59;4966325;28;118717;-81
2024/02/15 04:42:41;;;;;;;14.57;2.90;;;;;;;15.60;67.67;101523.25;4948927;28;117973;-81
2024/02/15 04:45:10;;;;;;;8.98;3.30;;;;;;;15.62;67.48;101516.03;4945800;28;124655;-81
2024/02/15 04:47:40;;;;;;;8.80;3.08;;;;;;;15.61;67.51;101524.97;4964539;28;123143;-81
2024/02/15 04:50:09;;;;;;;10.50;3.25;;;;;;;15.61;67.32;101518.78;4959152;28;117646;-81
2024/02/15 04:52:36;;;;;;;9.45;3.10;;;;;;;15.61;67.44;101508.94;4958665;28;119017;-81
2024/02/15 04:55:07;;;;;;;6.30;2.85;;;;;;;15.62;67.47;101513.34;4961559;28;123729;-81
2024/02/15 04:57:36;;;;;;;10.32;3.15;;;;;;;15.63;67.44;101501.72;4959894;28;123949;-81
2024/02/15 05:00:10;;;;;;;10.43;3.03;;;;;;;15.63;67.21;101496.38;4962459;28;117845;-81
2024/02/15 05:02:40;;;;;;;8.85;3.08;;;;;;;15.62;67.14;101505.34;4955162;28;117637;-81
2024/02/15 05:05:12;;;;;;;8.60;2.83;;;;;;;15.62;67.50;101500.00;4977412;28;123914;-81
2024/02/15 05:07:43;;;;;;;12.65;3.05;;;;;;;15.61;67.40;101497.41;4953121;28;123343;-81
2024/02/15 05:10:12;;;;;;;7.78;3.00;;;;;;;15.60;67.56;101491.22;4959642;28;119218;-81
2024/02/15 05:12:47;;;;;;;7.80;2.75;;;;;;;15.59;67.59;101489.47;4953903;28;119156;-81
2024/02/15 05:15:17;;;;;;;9.70;2.90;;;;;;;15.59;67.59;101497.50;4957967;28;123792;-81
2024/02/15 05:17:45;;;;;;;9.90;2.88;;;;;;;15.60;67.70;101501.91;4946949;28;123811;-81
2024/02/15 05:20:13;;;;;;;9.88;2.97;;;;;;;15.61;67.48;101503.59;4943601;28;119333;-81
2024/02/15 05:22:48;;;;;;;14.98;3.42;;;;;;;15.62;67.52;101505.34;4947565;28;121214;-81
2024/02/15 05:25:26;;;;;;;9.02;2.78;;;;;;;15.62;67.45;101500.00;4963086;28;123308;-81
2024/02/15 05:27:54;;;;;;;7.38;2.97;;;;;;;15.61;67.51;101506.28;4978096;28;124643;-81
2024/02/15 05:30:24;;;;;;;10.70;2.80;;;;;;;15.60;67.66;101507.25;4978907;28;117607;-81
2024/02/15 05:32:53;;;;;;;10.00;2.70;;;;;;;15.60;67.65;101501.91;4970909;28;117437;-81
2024/02/15 05:35:22;;;;;;;8.45;3.17;;;;;;;15.61;67.53;101508.94;4961535;28;124543;-81
2024/02/15 05:37:52;;;;;;;7.32;2.72;;;;;;;15.60;67.63;101509.91;4966464;28;124566;-81
2024/02/15 05:40:20;;;;;;;5.70;2.60;;;;;;;15.60;67.54;101507.25;4967719;28;118775;-81
2024/02/15 05:42:47;;;;;;;9.93;2.65;;;;;;;15.59;67.66;101508.19;4962553;28;119026;-81
2024/02/15 05:45:34;;;;;;;9.57;2.67;;;;;;;15.59;67.80;101502.84;4977599;28;124253;-81
2024/02/15 05:48:06;;;;;;;9.52;2.85;;;;;;;15.60;67.65;101511.72;4967775;28;123191;-80
2024/02/15 05:50:35;;;;;;;6.93;2.50;;;;;;;15.59;67.80;101500.16;4971965;28;120221;-80
2024/02/15 05:53:03;;;;;;;8.75;2.60;;;;;;;15.58;67.68;101498.47;4969468;28;117877;-81
2024/02/15 05:55:34;;;;;;;11.70;2.67;;;;;;;15.58;67.79;101498.47;4963655;28;123283;-81
2024/02/15 05:58:02;;;;;;;8.00;2.70;;;;;;;15.58;67.78;101493.13;4960741;28;123764;-81
2024/02/15 06:00:30;;;;;;;10.38;2.70;;;;;;;15.59;67.60;101500.16;4962018;28;119222;-80
2024/02/15 06:02:58;;;;;;;6.63;2.50;;;;;;;15.57;67.82;101491.38;4963253;28;118451;-81
2024/02/15 06:05:25;;;;;;;8.25;2.45;;;;;;;15.59;67.91;101500.16;4966588;28;123776;-80
2024/02/15 06:07:52;;;;;;;9.27;2.67;;;;;;;15.58;67.67;101487.78;4949152;28;122457;-81
2024/02/15 06:10:19;;;;;;;7.95;2.30;;;;;;;15.59;67.65;101489.47;4962964;28;120423;-81
2024/02/15 06:12:47;;;;;;;7.45;2.35;;;;;;;15.57;67.71;101476.22;4979060;28;119697;-81
2024/02/15 06:15:17;;;;;;;8.77;2.50;;;;;;;15.58;67.79;101461.94;4949498;28;123068;-81
2024/02/15 06:17:46;;;;;;;7.07;2.78;;;;;;;15.57;67.71;101454.00;4961034;28;124325;-81
2024/02/15 06:20:17;;;;;;;5.70;2.33;;;;;;;15.57;67.83;101454.84;4981669;28;119458;-81
2024/02/15 06:22:47;;;;;;;8.68;2.38;;;;;;;15.55;67.83;101445.22;4961991;28;118855;-81
2024/02/15 06:25:20;;;;;;;9.98;2.85;;;;;;;15.54;68.07;101432.84;4974647;28;125304;-81
2024/02/15 06:27:48;;;;;;;9.15;2.58;;;;;;;15.53;67.87;101409.75;4968557;28;123244;-81
2024/02/15 06:41:22;;;;;;;;;;;;;;;15.36;68.14;101392.84;4984727;28;120041;-81
2024/02/15 06:43:53;;;;;;;4.57;1.67;;;;;;;15.36;68.07;101416.88;4987113;28;119395;-80
2024/02/15 06:46:20;;;;;;;5.80;1.55;;;;;;;15.33;68.18;101425.09;4974155;28;123815;-81
2024/02/15 06:48:48;;;;;;;5.18;1.80;;;;;;;15.33;68.10;101429.53;4995063;28;124728;-81
2024/02/15 06:51:15;;;;;;;4.03;1.60;;;;;;;15.33;68.11;101446.44;4995358;28;119039;-80
2024/02/15 06:53:43;;;;;;;3.10;1.33;;;;;;;15.32;68.31;101455.38;4988657;28;117565;-81
2024/02/15 06:56:11;;;;;;;4.20;1.27;;;;;;;15.34;68.33;101453.47;4967686;28;124024;-81
2024/02/15 06:58:42;;;;;;;1.70;1.15;;;;;;;15.35;68.28;101460.56;4975871;28;123330;-80
2024/02/15 07:01:10;;;;;;;4.63;1.40;;;;;;;15.37;68.19;101474.66;4964845;28;120927;-81
2024/02/15 07:03:39;;;;;;;4.68;1.40;;;;;;;15.40;68.19;101472.78;4967516;28;119047;-80
2024/02/15 07:06:06;;;;;;;3.03;1.42;;;;;;;15.41;68.03;101463.81;4946141;28;125406;-80
2024/02/15 07:08:34;;;;;;;1.77;1.25;;;;;;;15.43;68.18;101472.63;4970134;28;123781;-80
2024/02/15 07:11:03;;;;;;;2.25;1.20;;;;;;;15.44;68.14;101474.31;4978927;28;118773;-80
2024/02/15 07:13:31;;;;;;;2.97;1.05;;;;;;;15.45;68.09;101484.06;4979687;28;119318;-80
2024/02/15 07:15:58;;;;;;;4.68;1.50;;;;;;;15.45;68.13;101478.72;4972878;28;124540;-80
2024/02/15 07:18:25;;;;;;;1.77;1.17;;;;;;;15.48;68.08;101486.53;4947089;28;123530;-80
2024/02/15 07:20:59;;;;;;;3.15;1.30;;;;;;;15.49;68.01;101494.47;4952600;28;118649;-80
2024/02/15 07:23:27;;;;;;;3.80;1.50;;;;;;;15.51;68.03;101497.06;4951576;28;119518;-80
2024/02/15 07:25:54;;;;;;;2.35;1.20;;;;;;;15.51;68.07;101481.91;4962297;28;123924;-79
2024/02/15 07:28:22;;;;;;;6.18;1.55;;;;;;;15.52;68.10;101467.63;4949567;28;123233;-79
2024/02/15 07:30:54;;;;;;;3.58;1.30;;;;;;;15.53;68.23;101452.44;4965535;28;119663;-80
2024/02/15 07:33:23;;;;;;;6.63;1.40;;;;;;;15.51;67.98;101441.00;4962230;28;119097;-80
2024/02/15 07:35:51;;;;;;;2.95;1.30;;;;;;;15.50;67.95;101436.59;4960250;28;124451;-80
2024/02/15 07:38:19;;;;;;;4.20;1.52;;;;;;;15.49;67.97;101440.22;4954080;28;122881;-80
2024/02/15 07:40:47;;;;;;;5.32;1.33;;;;;;;15.47;67.96;101442.13;4961768;28;118376;-80
2024/02/15 07:43:15;;;;;;;4.05;1.30;;;;;;;15.45;68.17;101433.34;4937407;28;122575;-80
2024/02/15 07:45:42;;;;;;;4.18;1.80;;;;;;;15.45;68.13;101444.03;4959530;28;124259;-80
2024/02/15 07:48:09;;;;;;;3.55;1.40;;;;;;;15.44;68.03;101443.13;4953871;28;124488;-80
2024/02/15 07:50:37;;;;;;;3.60;1.40;;;;;;;15.45;68.20;101438.69;4966106;28;119013;-80
2024/02/15 07:53:06;;;;;;;3.15;1.38;;;;;;;15.45;68.25;101444.88;4960030;28;119618;-79
2024/02/15 07:55:33;;;;;;;5.18;1.42;;;;;;;15.46;68.14;101451.06;4955893;28;123807;-80
2024/02/15 07:58:01;;;;;;;3.25;1.30;;;;;;;15.45;68.06;101441.34;4962689;28;122683;-80
2024/02/15 08:00:29;;;;;;;2.95;1.40;;;;;;;15.46;68.22;101451.06;4979509;28;119604;-81
2024/02/15 08:02:58;;;;;;;2.75;1.20;;;;;;;15.46;68.00;101454.59;4946516;28;118334;-81
2024/02/15 08:05:26;;;;;;;4.47;1.30;;;;;;;15.46;68.20;101456.41;4963920;28;124047;-81
2024/02/15 08:07:57;;;;;;;3.95;1.20;;;;;;;15.48;68.20;101449.16;4971906;28;123162;-81
2024/02/15 08:10:27;;;;;;;2.10;1.10;;;;;;;15.47;68.05;101458.16;4963729;28;119670;-81
2024/02/15 08:12:57;;;;;;;4.30;1.55;;;;;;;15.50;68.18;101452.63;4961446;28;119505;-81
2024/02/15 08:15:27;;;;;;;3.55;1.35;;;;;;;15.53;68.23;101457.78;4959780;28;124825;-81
2024/02/15 08:17:55;;;;;;;4.78;1.20;;;;;;;15.54;68.20;101444.38;4976545;28;122865;-81
2024/02/15 08:20:22;;;;;;;4.25;1.10;;;;;;;15.56;67.96;101446.97;4964884;28;119100;-81
2024/02/15 08:22:50;;;;;;;2.20;1.17;;;;;;;15.56;68.21;101441.63;4961770;28;119892;-81
2024/02/15 08:25:20;;;;;;;5.22;1.33;;;;;;;15.58;68.19;101442.38;4960777;28;124189;-81
2024/02/15 08:27:49;;;;;;;2.28;1.15;;;;;;;15.59;68.03;101441.41;4958226;28;125059;-80
2024/02/15 08:30:19;;;;;;;3.72;1.23;;;;;;;15.60;68.28;101427.13;4963123;28;119435;-80
2024/02/15 08:32:53;;;;;;;3.97;1.50;;;;;;;15.59;68.13;101425.41;4960920;28;118127;-81
2024/02/15 08:35:20;;;;;;;4.57;1.40;;;;;;;15.59;68.08;101428.06;4963004;28;124637;-81
2024/02/15 08:37:50;;;;;;;3.75;1.30;;;;;;;15.60;68.16;101434.28;4960213;28;123062;-81
2024/02/15 08:40:19;;;;;;;2.75;1.30;;;;;;;15.61;67.93;101434.19;4953669;28;120530;-81
2024/02/15 08:42:47;;;;;;;4.03;1.40;;;;;;;15.63;68.27;101432.28;4956084;28;120100;-81
2024/02/15 08:45:15;;;;;;;3.55;1.50;;;;;;;15.65;68.14;101430.41;4977179;28;123827;-81
2024/02/15 08:47:43;;;;;;;3.85;1.63;;;;;;;15.67;68.16;101433.84;4961759;28;123122;-81
2024/02/15 08:50:12;;;;;;;4.28;1.67;;;;;;;15.70;68.05;101439.00;4973756;28;118965;-81
2024/02/15 08:52:40;;;;;;;3.97;1.50;;;;;;;15.72;68.16;101437.09;4965267;28;118888;-81
2024/02/15 08:55:09;;;;;;;4.53;1.55;;;;;;;15.74;68.20;101435.22;4960929;28;124243;-81
2024/02/15 08:57:46;;;;;;;4.68;1.50;;;;;;;15.79;68.17;101436.81;4962615;28;123780;-81
2024/02/15 09:00:15;;;;;;;5.13;1.83;;;;;;;15.82;68.32;101431.28;4954851;28;117632;-80
2024/02/15 09:02:47;;;;;;;4.10;1.10;;;;;;;15.84;68.14;101429.38;4959300;28;118509;-81
2024/02/15 09:05:14;;;;;;;5.55;1.55;;;;;;;15.87;68.14;101434.53;4957902;28;124387;-81
2024/02/15 09:07:43;;;;;;;6.20;1.48;;;;;;;15.90;68.12;101437.06;4973116;28;124075;-81
2024/02/15 09:10:11;;;;;;;3.83;1.45;;;;;;;15.91;67.97;101428.91;4969684;28;118967;-81
2024/02/15 09:12:40;;;;;;;3.97;1.60;;;;;;;15.93;68.11;101428.84;4966264;28;117241;-81
2024/02/15 09:15:08;;;;;;;2.35;1.33;;;;;;;15.93;67.96;101423.50;4949552;28;123573;-81
2024/02/15 09:17:38;;;;;;;5.00;1.55;;;;;;;15.95;68.02;101429.59;4972656;28;122341;-81
2024/02/15 09:20:08;;;;;;;3.30;1.20;;;;;;;15.96;68.01;101428.66;4963254;28;118400;-81
2024/02/15 09:22:35;;;;;;;2.83;1.30;;;;;;;15.99;68.00;101427.63;4964138;28;118149;-81
2024/02/15 09:25:03;;;;;;;2.90;1.35;;;;;;;15.99;67.87;101427.63;4966752;28;124378;-81
2024/02/15 09:27:30;;;;;;;4.47;1.60;;;;;;;16.01;67.98;101429.28;4982380;28;124166;-82
2024/02/15 09:29:57;;;;;;;4.50;1.17;;;;;;;16.02;67.93;101425.63;4965793;28;120022;-81
2024/02/15 09:32:24;;;;;;;2.67;1.10;;;;;;;16.04;67.88;101425.53;4968861;28;119450;-82
2024/02/15 09:34:52;;;;;;;4.05;1.48;;;;;;;16.04;67.63;101421.06;4961448;28;124727;-81
2024/02/15 09:37:22;;;;;;;3.83;1.30;;;;;;;16.06;67.91;101424.50;4971645;28;124378;-81
2024/02/15 09:39:49;;;;;;;5.05;1.30;;;;;;;16.08;67.79;101421.72;4966095;28;118243;-81
2024/02/15 09:42:16;;;;;;;3.63;1.30;;;;;;;16.11;67.84;101427.75;4965381;28;118135;-81
2024/02/15 09:44:46;;;;;;;4.22;1.15;;;;;;;16.12;67.77;101429.50;4959673;28;98938;-81
2024/02/15 09:47:17;;;;;;;3.67;1.50;;;;;;;16.15;67.73;101429.28;4952135;28;123705;-82
2024/02/15 09:49:45;;;;;;;3.53;1.30;;;;;;;16.17;67.55;101425.69;4966156;28;119109;-82
2024/02/15 09:52:15;;;;;;;5.45;1.63;;;;;;;16.17;67.58;101425.69;4976159;28;119116;-82
2024/02/15 09:54:43;;;;;;;6.53;1.30;;;;;;;16.21;67.79;101427.22;4943199;28;123039;-81
2024/02/15 09:57:11;;;;;;;7.03;1.50;;;;;;;16.24;67.46;101429.72;4964197;28;123775;-82
2024/02/15 09:59:39;;;;;;;2.67;1.30;;;;;;;16.26;67.52;101425.16;4964189;28;119030;-82
2024/02/15 10:02:10;;;;;;;3.88;1.20;;;;;;;16.27;67.47;101430.38;4963229;28;118792;-82
2024/02/15 10:04:39;;;;;;;4.95;1.58;;;;;;;16.32;67.41;101435.47;4970389;28;123839;-81
2024/02/15 10:07:08;;;;;;;3.75;1.40;;;;;;;16.34;67.65;101433.56;4976351;28;123006;-81
2024/02/15 10:09:42;;;;;;;3.80;1.50;;;;;;;16.36;67.48;101431.66;4964323;28;119706;-82
2024/02/15 10:12:10;;;;;;;4.15;1.50;;;;;;;16.39;67.47;101435.94;4972548;28;118145;-82
2024/02/15 10:14:38;;;;;;;2.38;1.30;;;;;;;16.43;67.46;101429.47;4961649;28;123368;-82
2024/02/15 10:17:11;;;;;;;5.47;1.70;;;;;;;16.44;67.35;101423.16;4950186;28;123792;-81
2024/02/15 10:19:39;;;;;;;3.25;1.60;;;;;;;16.46;67.36;101419.47;4952968;28;119895;-82
2024/02/15 10:22:08;;;;;;;3.35;1.60;;;;;;;16.47;67.52;101421.16;4956555;28;119560;-81
2024/02/15 10:24:36;;;;;;;4.57;1.70;;;;;;;16.49;67.36;101416.59;4963973;28;123562;-82
2024/02/15 10:27:06;;;;;;;5.18;1.50;;;;;;;16.50;67.44;101412.97;4952136;28;124175;-81
2024/02/15 10:29:34;;;;;;;3.00;1.38;;;;;;;16.52;67.10;101410.22;4976513;28;118956;-82
2024/02/15 10:32:02;;;;;;;4.45;1.30;;;;;;;16.54;67.16;101419.84;4959070;28;118281;-81
2024/02/15 10:34:31;;;;;;;4.13;1.60;;;;;;;16.56;67.24;101411.75;4955428;28;124108;-81
2024/02/15 10:37:12;;;;;;;2.15;1.20;;;;;;;16.59;67.45;101416.03;4961805;28;122706;-82
2024/02/15 10:39:40;;;;;;;3.40;1.40;;;;;;;16.64;67.32;101424.63;4959492;28;119606;-80
2024/02/15 10:42:11;;;;;;;4.35;1.40;;;;;;;16.69;67.43;101422.53;4961064;28;119733;-81
2024/02/15 10:44:40;;;;;;;4.78;1.23;;;;;;;16.71;67.20;101425.97;4955594;28;123392;-82
2024/02/15 10:47:08;;;;;;;5.20;1.55;;;;;;;16.73;67.17;101416.91;4962877;28;123959;-82
2024/02/15 10:49:37;;;;;;;5.50;1.40;;;;;;;16.77;67.19;101420.25;4974486;28;118885;-80
2024/02/15 10:52:06;;;;;;;4.68;1.45;;;;;;;16.80;67.06;101420.06;4958982;28;117372;-82
2024/02/15 10:55:04;;;;;;;6.38;1.20;;;;;;;16.84;67.08;101416.28;4955554;28;122403;-82
2024/02/15 10:57:35;;;;;;;4.10;0.90;;;;;;;16.87;67.03;101412.53;4978381;28;123055;-82
2024/02/15 11:00:09;;;;;;;2.70;1.20;;;;;;;16.89;66.99;101414.16;4964419;28;118649;-82
2024/02/15 11:02:37;;;;;;;3.67;1.20;;;;;;;16.93;67.15;101421.06;4958310;28;119010;-81
2024/02/15 11:05:09;;;;;;;2.65;1.02;;;;;;;16.97;67.10;101412.81;4968133;28;124215;-81
2024/02/15 11:07:38;;;;;;;4.53;1.10;;;;;;;17.00;66.78;101409.97;4957871;28;122886;-82
2024/02/15 11:10:10;;;;;;;2.25;1.10;;;;;;;17.02;66.95;101413.41;4975893;28;119872;-82
2024/02/15 11:12:37;;;;;;;4.57;1.27;;;;;;;17.06;66.92;101409.56;4975721;28;119910;-81
2024/02/15 11:15:07;;;;;;;4.22;1.42;;;;;;;17.08;66.75;101407.66;4964663;28;122721;-82
2024/02/15 11:17:40;;;;;;;2.85;1.00;;;;;;;17.08;66.68;101402.28;4958132;28;124452;-82
2024/02/15 11:20:12;;;;;;;1.67;1.00;;;;;;;17.10;66.70;101400.38;4959559;28;119168;-82
2024/02/15 11:22:41;;;;;;;2.95;1.15;;;;;;;17.11;66.68;101402.09;4956747;28;119426;-81
2024/02/15 11:25:08;;;;;;;2.78;1.08;;;;;;;17.12;66.52;101398.47;4961362;28;124955;-81
2024/02/15 11:27:40;;;;;;;1.80;1.10;;;;;;;17.14;66.63;101401.94;4966940;28;124185;-82
2024/02/15 11:30:12;;;;;;;2.47;1.27;;;;;;;17.17;66.67;101395.50;4943863;28;118424;-81
2024/02/15 11:32:40;;;;;;;2.03;0.93;;;;;;;17.19;66.33;101394.44;4944544;28;118608;-82